Time;durP1;ratioP1;P1;durP2;ratioP2;P2;SDS_P1;SDS_P2;PMS_P1;PMS_P2;Temp;Humidity;BMP_temperature;BMP_pressure;BME280_temperature;BME280_humidity;BME280_pressure;Samples;Min_cycle;Max_cycle;Signal;HPM_P1;HPM_P2
2021/03/11 00:02:13;;;;;;;54.17;27.60;;;-5.10;1.00;;;;;;4856279;28;20666;-87
2021/03/11 00:04:35;;;;;;;45.10;25.13;;;-5.10;99.90;;;;;;4858360;28;20596;-88
2021/03/11 00:06:57;;;;;;;49.27;26.73;;;-5.10;73.60;;;;;;4857510;28;20995;-88
2021/03/11 00:09:20;;;;;;;44.03;24.00;;;-5.10;1.00;;;;;;4854746;28;20616;-78
2021/03/11 00:11:42;;;;;;;50.53;25.53;;;-5.10;1.00;;;;;;4839196;28;20601;-89
2021/03/11 00:14:04;;;;;;;46.80;24.77;;;-5.10;1.00;;;;;;4834763;28;20701;-82
2021/03/11 00:16:26;;;;;;;54.17;25.97;;;-5.10;99.90;;;;;;4848239;28;21164;-85
2021/03/11 00:18:48;;;;;;;46.33;24.83;;;-5.10;99.90;;;;;;4844932;28;20670;-85
2021/03/11 00:21:10;;;;;;;42.93;23.23;;;-5.10;99.90;;;;;;4840929;28;20636;-86
2021/03/11 00:23:32;;;;;;;49.27;24.67;;;-5.20;99.90;;;;;;4861198;28;20650;-79
2021/03/11 00:25:55;;;;;;;51.53;25.40;;;-5.20;49.50;;;;;;4855756;28;20669;-86
2021/03/11 00:28:17;;;;;;;45.47;24.80;;;-5.20;1.00;;;;;;4860727;28;20645;-78
2021/03/11 00:30:39;;;;;;;46.43;21.80;;;-5.30;1.00;;;;;;4860271;28;20646;-84
2021/03/11 00:33:01;;;;;;;41.70;22.00;;;-5.30;1.00;;;;;;4861106;28;20657;-86
2021/03/11 00:35:23;;;;;;;44.23;23.97;;;-5.40;1.00;;;;;;4860598;28;20631;-87
2021/03/11 00:37:47;;;;;;;48.77;25.23;;;-5.40;1.00;;;;;;4859382;28;20615;-87
2021/03/11 00:40:12;;;;;;;52.07;26.07;;;-5.50;1.00;;;;;;4860494;28;21002;-87
2021/03/11 00:42:35;;;;;;;54.67;27.17;;;-5.50;1.00;;;;;;4860952;28;20639;-85
2021/03/11 00:44:57;;;;;;;52.17;28.80;;;-5.60;1.00;;;;;;4854231;28;20628;-86
2021/03/11 00:47:20;;;;;;;49.20;25.93;;;-5.60;41.70;;;;;;4841538;28;20600;-84
2021/03/11 00:49:42;;;;;;;55.87;28.13;;;-5.70;48.70;;;;;;4855955;28;20651;-86
2021/03/11 00:52:06;;;;;;;53.57;29.67;;;-5.70;18.30;;;;;;4840790;28;20605;-87
2021/03/11 00:54:28;;;;;;;55.77;30.80;;;-5.90;1.00;;;;;;4857023;28;20596;-87
2021/03/11 00:56:50;;;;;;;68.30;35.43;;;-5.90;57.70;;;;;;4840783;28;20596;-86
2021/03/11 00:59:13;;;;;;;74.83;37.93;;;-6.00;99.90;;;;;;4840207;28;20612;-86
2021/03/11 01:01:36;;;;;;;77.03;36.63;;;-6.00;99.90;;;;;;4838835;28;20675;-87
2021/03/11 01:04:00;;;;;;;65.90;33.10;;;-5.90;1.00;;;;;;4834367;28;20784;-84
2021/03/11 01:06:23;;;;;;;56.07;30.97;;;-6.10;1.00;;;;;;4860006;28;20649;-87
2021/03/11 01:08:45;;;;;;;51.87;28.70;;;-6.20;1.00;;;;;;4860217;28;20646;-87
2021/03/11 01:11:10;;;;;;;51.03;27.80;;;-6.20;99.90;;;;;;4842981;28;20631;-87
2021/03/11 01:13:32;;;;;;;51.43;29.10;;;-6.20;99.90;;;;;;4841262;28;20671;-81
2021/03/11 01:15:55;;;;;;;50.77;28.03;;;-6.10;1.00;;;;;;4842890;28;20620;-84
2021/03/11 01:18:17;;;;;;;52.77;26.53;;;-6.20;1.00;;;;;;4848453;28;20623;-79
2021/03/11 01:20:40;;;;;;;49.57;26.57;;;-6.20;23.70;;;;;;4859713;28;20658;-79
2021/03/11 01:23:02;;;;;;;46.83;26.10;;;-6.20;99.90;;;;;;4854884;28;21105;-79
2021/03/11 01:25:25;;;;;;;51.77;27.43;;;-6.20;99.90;;;;;;4858525;28;20608;-87
2021/03/11 01:27:47;;;;;;;49.93;26.23;;;-6.20;1.00;;;;;;4859765;28;20634;-83
2021/03/11 01:30:10;;;;;;;50.63;25.60;;;-6.30;1.00;;;;;;4850857;28;21173;-87
2021/03/11 01:32:32;;;;;;;41.90;24.27;;;-6.30;99.90;;;;;;4840436;28;21034;-82
2021/03/11 01:34:55;;;;;;;46.73;24.73;;;-6.30;99.90;;;;;;4840959;28;21185;-87
2021/03/11 01:37:17;;;;;;;44.87;24.80;;;-6.40;99.90;;;;;;4855763;28;21234;-82
2021/03/11 01:39:39;;;;;;;42.47;23.93;;;-6.40;99.90;;;;;;4840599;28;21011;-75
2021/03/11 01:42:01;;;;;;;49.20;25.33;;;-6.40;1.00;;;;;;4842046;28;20608;-84
2021/03/11 01:44:23;;;;;;;53.10;27.23;;;-6.50;1.00;;;;;;4839789;28;20706;-88
2021/03/11 01:46:45;;;;;;;48.47;24.73;;;-6.50;99.90;;;;;;4842779;28;20666;-85
2021/03/11 01:49:08;;;;;;;47.17;25.63;;;-6.60;99.90;;;;;;4860194;28;20998;-86
2021/03/11 01:51:31;;;;;;;46.00;25.03;;;-6.60;99.90;;;;;;4848857;28;20660;-83
2021/03/11 01:53:53;;;;;;;41.37;22.50;;;-6.70;99.90;;;;;;4839979;28;20600;-87
2021/03/11 01:56:16;;;;;;;36.53;21.10;;;-6.70;1.00;;;;;;4839905;28;20592;-85
2021/03/11 01:58:38;;;;;;;34.97;19.13;;;-6.60;99.90;;;;;;4838642;28;21054;-87
2021/03/11 02:01:00;;;;;;;36.53;20.67;;;-6.60;1.00;;;;;;4851177;28;20624;-85
2021/03/11 02:03:22;;;;;;;35.57;20.23;;;-6.50;1.00;;;;;;4839970;28;20617;-85
2021/03/11 02:05:45;;;;;;;37.53;21.37;;;-6.50;6.30;;;;;;4839392;28;20609;-84
2021/03/11 02:08:07;;;;;;;38.47;20.17;;;-6.50;1.00;;;;;;4841119;28;20613;-85
2021/03/11 02:10:30;;;;;;;37.63;20.27;;;-6.40;1.00;;;;;;4857216;28;20661;-82
2021/03/11 02:13:06;;;;;;;36.33;20.57;;;-6.40;1.00;;;;;;4852788;28;20699;-87
2021/03/11 02:15:31;;;;;;;45.23;23.00;;;-6.50;99.90;;;;;;4839005;28;20642;-83
2021/03/11 02:18:02;;;;;;;37.27;20.50;;;-6.50;99.90;;;;;;4846887;28;20612;-82
2021/03/11 02:20:51;;;;;;;38.10;20.43;;;-6.50;54.10;;;;;;4841048;28;20627;-84
2021/03/11 02:23:51;;;;;;;29.50;17.73;;;-6.50;1.00;;;;;;4840349;28;20662;-83
2021/03/11 02:26:30;;;;;;;31.07;17.10;;;-6.60;92.90;;;;;;4837708;28;20616;-86
2021/03/11 02:29:02;;;;;;;32.37;16.67;;;-6.50;99.90;;;;;;4857287;28;20592;-87
2021/03/11 02:31:28;;;;;;;29.63;16.30;;;-6.00;99.90;;;;;;4839038;28;20620;-86
2021/03/11 02:33:51;;;;;;;30.07;17.17;;;-6.40;1.00;;;;;;4839404;28;20678;-86
2021/03/11 02:36:14;;;;;;;29.43;16.43;;;-6.30;1.00;;;;;;4849916;28;20632;-86
2021/03/11 02:38:38;;;;;;;33.17;16.53;;;-6.30;99.90;;;;;;4839677;28;20627;-85
2021/03/11 02:41:02;;;;;;;28.57;16.13;;;-6.20;86.60;;;;;;4839616;28;20617;-84
2021/03/11 02:43:25;;;;;;;32.37;16.53;;;-6.20;1.00;;;;;;4839876;28;20632;-86
2021/03/11 02:45:51;;;;;;;32.83;16.90;;;-6.10;1.00;;;;;;4839149;28;20674;-82
2021/03/11 02:48:14;;;;;;;30.07;17.57;;;-6.10;99.90;;;;;;4838919;28;20638;-85
2021/03/11 02:50:37;;;;;;;34.40;17.40;;;-6.10;10.30;;;;;;4839225;28;20667;-86
2021/03/11 02:53:00;;;;;;;36.70;18.97;;;-6.10;1.00;;;;;;4838262;28;20613;-86
2021/03/11 02:55:23;;;;;;;36.13;20.30;;;-6.00;1.00;;;;;;4847146;28;20616;-84
2021/03/11 02:57:46;;;;;;;37.33;20.03;;;-6.00;1.00;;;;;;4857400;28;20607;-86
2021/03/11 03:00:12;;;;;;;40.77;20.83;;;-6.00;99.90;;;;;;4848962;28;20620;-86
2021/03/11 03:02:36;;;;;;;38.03;20.70;;;-6.00;99.90;;;;;;4837434;28;20604;-85
2021/03/11 03:04:59;;;;;;;35.63;19.63;;;-6.00;99.90;;;;;;4857729;28;20713;-77
2021/03/11 03:07:21;;;;;;;39.23;19.80;;;-6.00;1.00;;;;;;4856831;28;20657;-85
2021/03/11 03:09:45;;;;;;;31.57;19.27;;;-6.00;1.00;;;;;;4840874;28;20654;-85
2021/03/11 03:12:08;;;;;;;34.10;19.40;;;-6.00;1.00;;;;;;4837859;28;20659;-86
2021/03/11 03:14:30;;;;;;;35.60;19.90;;;-6.10;1.00;;;;;;4839292;28;20667;-85
2021/03/11 03:16:53;;;;;;;37.37;21.10;;;-6.20;1.00;;;;;;4855876;28;20615;-82
2021/03/11 03:19:16;;;;;;;37.57;20.27;;;-6.20;1.00;;;;;;4854974;28;20623;-85
2021/03/11 03:21:41;;;;;;;36.80;20.67;;;-6.30;1.00;;;;;;4858001;28;20596;-86
2021/03/11 03:24:04;;;;;;;35.87;20.63;;;-6.30;1.00;;;;;;4858203;28;20728;-82
2021/03/11 03:26:26;;;;;;;42.83;21.80;;;-6.40;1.00;;;;;;4857547;28;20608;-82
2021/03/11 03:28:48;;;;;;;35.27;19.47;;;-6.40;1.00;;;;;;4857612;28;20600;-83
2021/03/11 03:31:11;;;;;;;38.20;20.43;;;-6.40;1.00;;;;;;4839187;28;20616;-85
2021/03/11 03:33:33;;;;;;;35.87;20.33;;;-6.50;1.00;;;;;;4838803;28;20592;-84
2021/03/11 03:35:56;;;;;;;35.80;20.47;;;-6.50;1.00;;;;;;4852234;28;20693;-84
2021/03/11 03:38:18;;;;;;;34.60;20.00;;;-6.50;46.20;;;;;;4857463;28;20603;-84
2021/03/11 03:40:41;;;;;;;32.00;19.23;;;-6.60;99.90;;;;;;4851993;28;20671;-79
2021/03/11 03:43:10;;;;;;;35.13;20.73;;;-6.60;99.90;;;;;;4849421;28;20623;-78
2021/03/11 03:45:34;;;;;;;33.17;19.97;;;-6.60;99.90;;;;;;4856164;28;20650;-81
2021/03/11 03:47:58;;;;;;;36.20;21.07;;;-6.60;1.00;;;;;;4856215;28;20639;-84
2021/03/11 03:50:20;;;;;;;33.40;19.83;;;-6.60;1.00;;;;;;4856711;28;20666;-80
2021/03/11 03:52:44;;;;;;;33.87;20.60;;;-6.60;1.00;;;;;;4858775;28;20629;-85
2021/03/11 03:55:11;;;;;;;33.70;20.27;;;-6.60;99.90;;;;;;4848625;28;20624;-80
2021/03/11 03:57:33;;;;;;;36.37;20.77;;;-6.60;99.90;;;;;;4848114;28;20623;-81
2021/03/11 03:59:56;;;;;;;34.70;19.67;;;-6.60;1.00;;;;;;4853377;28;20646;-83
2021/03/11 04:02:20;;;;;;;32.90;19.20;;;-6.60;99.90;;;;;;4840538;28;20592;-76
2021/03/11 04:04:44;;;;;;;35.07;19.80;;;-6.70;99.90;;;;;;4844873;28;20716;-79
2021/03/11 04:07:10;;;;;;;40.20;21.07;;;-6.70;99.90;;;;;;4860690;28;20658;-84
2021/03/11 04:09:35;;;;;;;38.63;21.47;;;-6.70;99.90;;;;;;4861253;28;20624;-76
2021/03/11 04:11:58;;;;;;;54.40;26.13;;;-6.70;99.90;;;;;;4861401;28;20680;-86
2021/03/11 04:14:21;;;;;;;587.63;222.67;;;-6.70;1.00;;;;;;4861040;28;20599;-85
2021/03/11 04:16:44;;;;;;;401.50;140.37;;;-6.70;1.00;;;;;;4841353;28;20620;-81
2021/03/11 04:19:06;;;;;;;165.83;66.50;;;-6.60;99.90;;;;;;4842338;28;20597;-85
2021/03/11 04:21:30;;;;;;;59.87;31.73;;;-6.60;1.00;;;;;;4856522;28;20665;-86
2021/03/11 04:23:53;;;;;;;41.30;23.23;;;-6.60;1.00;;;;;;4840179;28;20648;-86
2021/03/11 04:26:16;;;;;;;42.87;24.37;;;-6.50;99.90;;;;;;4840885;28;20609;-83
2021/03/11 04:28:39;;;;;;;46.53;25.37;;;-6.50;99.90;;;;;;4841987;28;20596;-75
2021/03/11 04:31:02;;;;;;;46.27;24.23;;;-6.40;99.90;;;;;;4857369;28;20669;-85
2021/03/11 04:33:25;;;;;;;37.83;20.83;;;-6.40;1.00;;;;;;4852830;28;20600;-86
2021/03/11 04:35:47;;;;;;;39.63;21.40;;;-6.40;99.90;;;;;;4838882;28;20703;-78
2021/03/11 04:38:09;;;;;;;48.23;25.50;;;-6.40;99.90;;;;;;4847705;28;20630;-83
2021/03/11 04:40:31;;;;;;;63.77;30.43;;;-6.30;99.90;;;;;;4860704;28;20612;-86
2021/03/11 04:42:55;;;;;;;66.60;32.83;;;-6.30;99.90;;;;;;4857106;28;20620;-86
2021/03/11 04:45:17;;;;;;;63.63;29.23;;;-6.30;99.90;;;;;;4840810;28;20698;-78
2021/03/11 04:47:40;;;;;;;59.87;30.30;;;-6.30;99.90;;;;;;4840892;28;20608;-75
2021/03/11 04:50:04;;;;;;;85.03;39.13;;;-6.40;1.00;;;;;;4852299;28;20670;-75
2021/03/11 04:52:27;;;;;;;135.47;53.33;;;-6.40;1.00;;;;;;4856078;28;20611;-86
2021/03/11 04:54:49;;;;;;;167.50;64.70;;;-6.40;99.90;;;;;;4850988;28;20616;-85
2021/03/11 04:57:11;;;;;;;171.43;63.17;;;-6.40;99.90;;;;;;4838943;28;20608;-85
2021/03/11 04:59:35;;;;;;;101.03;42.07;;;-6.50;99.90;;;;;;4847153;28;20966;-78
2021/03/11 05:02:00;;;;;;;131.20;50.63;;;-6.40;1.00;;;;;;4855802;28;20615;-85
2021/03/11 05:04:23;;;;;;;138.77;55.20;;;-6.40;1.00;;;;;;4854551;28;20640;-85
2021/03/11 05:06:45;;;;;;;134.87;52.63;;;-6.40;1.00;;;;;;4840562;28;20601;-81
2021/03/11 05:09:07;;;;;;;122.07;47.43;;;-6.40;1.00;;;;;;4840310;28;20605;-84
2021/03/11 05:11:30;;;;;;;48.70;26.97;;;-6.50;1.00;;;;;;4843425;28;20604;-84
2021/03/11 05:13:52;;;;;;;51.07;28.30;;;-6.40;1.00;;;;;;4855016;28;21016;-85
2021/03/11 05:16:14;;;;;;;53.37;27.57;;;-6.40;1.00;;;;;;4859258;28;20607;-85
2021/03/11 05:18:37;;;;;;;49.73;26.63;;;-6.40;99.90;;;;;;4858134;28;20595;-81
2021/03/11 05:20:59;;;;;;;50.03;26.03;;;-6.40;99.90;;;;;;4858667;28;20919;-76
2021/03/11 05:23:21;;;;;;;35.63;20.80;;;-6.40;99.90;;;;;;4849295;28;20683;-84
2021/03/11 05:25:43;;;;;;;33.03;19.20;;;-6.30;99.90;;;;;;4843839;28;20654;-86
2021/03/11 05:28:07;;;;;;;27.47;16.33;;;-6.30;99.90;;;;;;4851166;28;21026;-85
2021/03/11 05:30:29;;;;;;;29.07;16.33;;;-6.20;99.90;;;;;;4841791;28;20601;-84
2021/03/11 05:32:51;;;;;;;26.40;15.87;;;-6.20;1.00;;;;;;4846218;28;21048;-86
2021/03/11 05:35:13;;;;;;;25.30;14.77;;;-6.10;1.00;;;;;;4858081;28;20669;-85
2021/03/11 05:37:37;;;;;;;25.73;14.53;;;-6.00;99.90;;;;;;4857381;28;21627;-83
2021/03/11 05:39:59;;;;;;;22.87;13.87;;;-5.90;1.00;;;;;;4841250;28;21267;-77
2021/03/11 05:42:21;;;;;;;28.83;14.93;;;-5.80;99.90;;;;;;4858370;28;20642;-84
2021/03/11 05:44:44;;;;;;;23.10;14.27;;;-5.60;1.00;;;;;;4840522;28;20632;-82
2021/03/11 05:47:07;;;;;;;24.47;13.97;;;-5.50;1.00;;;;;;4839912;28;20655;-86
2021/03/11 05:49:30;;;;;;;29.20;15.00;;;-5.40;99.90;;;;;;4842930;28;20659;-85
2021/03/11 05:51:53;;;;;;;28.87;15.47;;;-5.20;1.00;;;;;;4840015;28;20643;-85
2021/03/11 05:54:15;;;;;;;34.30;17.40;;;-5.10;1.00;;;;;;4840194;28;20612;-87
2021/03/11 05:56:37;;;;;;;37.57;19.60;;;-4.90;1.00;;;;;;4838789;28;20605;-80
2021/03/11 05:58:59;;;;;;;30.20;16.30;;;-4.80;99.90;;;;;;4851269;28;20611;-76
2021/03/11 06:01:24;;;;;;;28.47;15.73;;;-4.60;99.90;;;;;;4843285;28;20647;-83
2021/03/11 06:03:48;;;;;;;24.93;13.93;;;-4.40;99.90;;;;;;4839704;28;20636;-82
2021/03/11 06:06:12;;;;;;;23.77;13.47;;;-4.30;1.00;;;;;;4855972;28;20607;-78
2021/03/11 06:08:34;;;;;;;22.93;13.20;;;-4.10;1.00;;;;;;4858513;28;21007;-88
2021/03/11 06:10:59;;;;;;;24.17;13.40;;;-3.90;1.00;;;;;;4840191;28;20727;-83
2021/03/11 06:13:23;;;;;;;24.07;13.27;;;-3.70;1.00;;;;;;4837953;28;20702;-85
2021/03/11 06:15:49;;;;;;;24.30;13.23;;;-3.50;99.90;;;;;;4849744;28;21164;-84
2021/03/11 06:18:11;;;;;;;24.90;14.83;;;-3.30;99.90;;;;;;4841496;28;20662;-84
2021/03/11 06:20:34;;;;;;;26.00;14.77;;;-3.00;99.90;;;;;;4838930;28;20686;-81
2021/03/11 06:22:57;;;;;;;22.27;12.93;;;-2.80;99.90;;;;;;4838911;28;20604;-80
2021/03/11 06:25:19;;;;;;;24.87;14.97;;;-2.50;99.90;;;;;;4866609;28;20658;-78
2021/03/11 06:27:42;;;;;;;23.13;14.13;;;-2.30;69.90;;;;;;4840184;28;20600;-87
2021/03/11 06:30:07;;;;;;;22.03;12.63;;;-1.40;1.00;;;;;;4846645;28;20970;-84
2021/03/11 06:32:29;;;;;;;23.53;13.50;;;-1.80;1.00;;;;;;4856937;28;20669;-86
2021/03/11 06:34:52;;;;;;;22.73;13.00;;;-1.60;1.00;;;;;;4838791;28;20632;-85
2021/03/11 06:37:15;;;;;;;23.47;12.97;;;-1.40;1.00;;;;;;4839096;28;20666;-87
2021/03/11 06:39:39;;;;;;;21.70;12.80;;;-1.10;1.00;;;;;;4845466;28;20623;-87
2021/03/11 06:42:02;;;;;;;20.07;13.10;;;-0.90;1.00;;;;;;4840251;28;20643;-86
2021/03/11 06:44:35;;;;;;;20.67;12.20;;;-0.70;1.00;;;;;;4856240;28;21187;-89
2021/03/11 06:46:59;;;;;;;20.10;13.00;;;-0.60;1.00;;;;;;4858014;28;20596;-89
2021/03/11 06:49:21;;;;;;;22.00;12.73;;;-0.20;1.00;;;;;;4846707;28;20719;-89
2021/03/11 06:51:43;;;;;;;18.60;12.27;;;0.00;1.00;;;;;;4846191;28;21226;-86
2021/03/11 06:54:08;;;;;;;17.67;11.10;;;-0.20;1.00;;;;;;4859150;28;20934;-91
2021/03/11 06:56:31;;;;;;;17.77;11.00;;;0.10;1.00;;;;;;4845922;28;20240;-85
2021/03/11 06:59:01;;;;;;;19.03;10.70;;;-0.10;1.00;;;;;;4856615;28;20685;-87
2021/03/11 07:01:23;;;;;;;16.73;10.90;;;0.00;1.00;;;;;;4842707;28;20669;-87
2021/03/11 07:03:47;;;;;;;16.03;10.67;;;0.00;1.00;;;;;;4851597;28;20577;-83
2021/03/11 07:06:10;;;;;;;16.97;10.47;;;0.10;1.00;;;;;;4853337;28;20631;-83
2021/03/11 07:08:32;;;;;;;19.17;10.63;;;0.10;1.00;;;;;;4855113;28;20660;-83
2021/03/11 07:11:04;;;;;;;16.27;10.53;;;0.20;1.00;;;;;;4837944;28;20650;-86
2021/03/11 07:13:38;;;;;;;16.87;10.00;;;0.30;1.00;;;;;;4839515;28;20651;-87
2021/03/11 07:16:00;;;;;;;15.30;10.60;;;0.40;1.00;;;;;;4848188;28;20619;-78
2021/03/11 07:18:24;;;;;;;18.43;10.67;;;0.50;1.00;;;;;;4857672;28;20190;-86
2021/03/11 07:20:46;;;;;;;18.50;12.20;;;0.60;1.00;;;;;;4857196;28;20718;-88
2021/03/11 07:23:10;;;;;;;17.37;11.00;;;0.70;1.00;;;;;;4858634;28;20178;-87
2021/03/11 07:25:34;;;;;;;20.97;12.13;;;0.90;1.00;;;;;;4855575;28;21350;-79
2021/03/11 07:27:56;;;;;;;19.67;13.20;;;1.00;1.00;;;;;;4843402;28;20241;-85
2021/03/11 07:30:24;;;;;;;18.40;12.23;;;1.20;1.00;;;;;;4849967;28;20225;-85
2021/03/11 07:32:46;;;;;;;16.77;11.23;;;1.40;1.00;;;;;;4838619;28;20186;-87
2021/03/11 07:35:11;;;;;;;18.43;10.60;;;1.60;1.00;;;;;;4844523;28;20222;-84
2021/03/11 07:37:34;;;;;;;15.17;10.83;;;1.80;1.00;;;;;;4838989;28;20205;-86
2021/03/11 07:39:59;;;;;;;17.33;10.80;;;1.90;1.00;;;;;;4837200;28;20260;-86
2021/03/11 07:42:21;;;;;;;16.83;11.13;;;2.10;1.00;;;;;;4837181;28;20661;-84
2021/03/11 07:44:44;;;;;;;16.47;11.37;;;2.20;1.00;;;;;;4838067;28;20337;-82
2021/03/11 07:47:08;;;;;;;15.90;10.63;;;2.40;1.00;;;;;;4845320;28;20612;-85
2021/03/11 07:49:30;;;;;;;15.80;10.67;;;2.50;1.00;;;;;;4837833;28;20248;-87
2021/03/11 07:51:52;;;;;;;13.30;10.03;;;2.70;1.00;;;;;;4846069;28;20287;-83
2021/03/11 07:54:17;;;;;;;12.27;10.00;;;2.80;1.00;;;;;;4849057;28;20194;-86
2021/03/11 07:56:39;;;;;;;14.30;10.80;;;2.90;1.00;;;;;;4842623;28;20217;-87
2021/03/11 07:59:04;;;;;;;15.30;9.97;;;3.10;1.00;;;;;;4844861;28;20241;-84
2021/03/11 08:01:26;;;;;;;15.50;10.30;;;3.30;1.00;;;;;;4842533;28;20183;-87
2021/03/11 08:03:50;;;;;;;12.70;9.73;;;3.60;1.00;;;;;;4849308;28;20710;-86
2021/03/11 08:06:25;;;;;;;13.27;10.43;;;4.10;1.00;;;;;;4839414;28;20269;-85
2021/03/11 08:08:48;;;;;;;14.63;10.43;;;4.60;1.00;;;;;;4842794;28;20232;-83
2021/03/11 08:11:10;;;;;;;13.50;10.10;;;5.00;1.00;;;;;;4849657;28;20199;-83
2021/03/11 08:13:36;;;;;;;13.07;10.03;;;5.30;1.00;;;;;;4837956;28;20202;-84
2021/03/11 08:16:00;;;;;;;12.90;10.17;;;5.80;1.00;;;;;;4841075;28;20190;-83
2021/03/11 08:18:46;;;;;;;15.13;10.63;;;5.60;1.00;;;;;;4855527;28;20233;-82
2021/03/11 08:21:44;;;;;;;13.63;9.87;;;5.70;1.00;;;;;;4837916;28;20749;-81
2021/03/11 08:24:41;;;;;;;14.33;9.93;;;6.00;1.00;;;;;;4837072;28;20178;-87
2021/03/11 08:27:03;;;;;;;13.07;9.30;;;6.40;1.00;;;;;;4836991;28;20198;-82
2021/03/11 08:29:34;;;;;;;11.43;9.37;;;6.60;1.00;;;;;;4848433;28;20229;-87
2021/03/11 08:31:56;;;;;;;10.90;9.13;;;6.70;1.00;;;;;;4856763;28;20229;-86
2021/03/11 08:34:36;;;;;;;13.60;9.80;;;6.70;1.00;;;;;;4848908;28;20581;-85
2021/03/11 08:37:17;;;;;;;12.07;8.80;;;6.60;1.00;;;;;;4844679;28;20213;-77
2021/03/11 08:39:39;;;;;;;11.50;9.37;;;6.70;1.00;;;;;;4843246;28;20183;-82
2021/03/11 08:42:48;;;;;;;11.33;8.93;;;6.70;1.00;;;;;;4850705;28;20324;-82
2021/03/11 08:45:10;;;;;;;12.40;9.77;;;6.80;1.00;;;;;;4851982;28;20773;-83
2021/03/11 08:47:32;;;;;;;11.93;9.27;;;7.00;1.00;;;;;;4853625;28;20199;-79
2021/03/11 08:49:54;;;;;;;11.50;8.23;;;7.10;1.00;;;;;;4851025;28;20190;-86
2021/03/11 08:52:44;;;;;;;11.40;9.47;;;7.10;1.00;;;;;;4841789;28;20244;-77
2021/03/11 08:55:32;;;;;;;10.43;8.70;;;7.20;1.00;;;;;;4858176;28;20346;-83
2021/03/11 08:57:54;;;;;;;10.90;8.30;;;7.40;1.00;;;;;;4857022;28;20244;-87
2021/03/11 09:00:16;;;;;;;10.00;8.53;;;7.40;1.00;;;;;;4841234;28;20237;-82
2021/03/11 09:02:38;;;;;;;10.30;8.40;;;7.40;1.00;;;;;;4841366;28;20233;-86
2021/03/11 09:05:00;;;;;;;10.67;8.53;;;7.60;1.00;;;;;;4858002;28;20225;-75
2021/03/11 09:07:29;;;;;;;9.90;8.47;;;7.80;1.00;;;;;;4854590;28;20265;-82
2021/03/11 09:09:52;;;;;;;9.70;8.60;;;8.00;1.00;;;;;;4853164;28;20194;-81
2021/03/11 09:12:16;;;;;;;10.00;7.80;;;8.20;1.00;;;;;;4839646;28;20210;-87
2021/03/11 09:14:39;;;;;;;10.07;8.23;;;8.50;1.00;;;;;;4841548;28;20233;-85
2021/03/11 09:17:04;;;;;;;9.07;8.07;;;8.70;1.00;;;;;;4849303;28;20209;-86
2021/03/11 09:19:34;;;;;;;8.53;7.40;;;8.90;1.00;;;;;;4858928;28;20178;-81
2021/03/11 09:21:56;;;;;;;7.93;7.20;;;8.90;1.00;;;;;;4850565;28;20187;-86
2021/03/11 09:24:19;;;;;;;9.43;7.80;;;8.80;1.00;;;;;;4840243;28;20241;-87
2021/03/11 09:26:42;;;;;;;9.47;7.40;;;8.80;1.00;;;;;;4839644;28;20256;-87
2021/03/11 09:29:05;;;;;;;8.17;7.03;;;8.80;1.00;;;;;;4839635;28;20190;-81
2021/03/11 09:31:29;;;;;;;7.93;7.13;;;8.70;1.00;;;;;;4846002;28;20195;-84
2021/03/11 09:33:51;;;;;;;8.73;7.13;;;8.90;1.00;;;;;;4851015;28;20190;-86
2021/03/11 09:36:15;;;;;;;8.60;7.70;;;9.10;1.00;;;;;;4839379;28;20598;-84
2021/03/11 09:38:37;;;;;;;7.57;6.80;;;9.30;1.00;;;;;;4853413;28;20198;-87
2021/03/11 09:41:01;;;;;;;7.67;6.90;;;9.40;1.00;;;;;;4854599;28;20195;-89
2021/03/11 09:43:29;;;;;;;7.93;6.97;;;9.30;1.00;;;;;;4847136;28;20228;-86
2021/03/11 09:45:53;;;;;;;9.90;7.03;;;9.20;1.00;;;;;;4838107;28;20288;-84
2021/03/11 09:48:18;;;;;;;7.20;6.40;;;9.10;1.00;;;;;;4839955;28;20240;-85
2021/03/11 09:50:52;;;;;;;7.33;6.63;;;9.00;1.00;;;;;;4838004;28;20558;-81
2021/03/11 09:53:14;;;;;;;8.87;7.10;;;9.10;1.00;;;;;;4847051;28;20178;-81
2021/03/11 09:55:37;;;;;;;8.03;6.40;;;9.20;1.00;;;;;;4858165;28;20187;-84
2021/03/11 09:57:59;;;;;;;7.87;6.73;;;9.30;1.00;;;;;;4858232;28;20182;-81
2021/03/11 10:00:23;;;;;;;6.77;6.07;;;9.30;1.00;;;;;;4838992;28;20241;-74
2021/03/11 10:02:48;;;;;;;6.90;6.00;;;9.10;1.00;;;;;;4840016;28;20210;-84
2021/03/11 10:05:11;;;;;;;7.17;6.47;;;9.10;1.00;;;;;;4838201;28;20239;-86
2021/03/11 10:07:33;;;;;;;7.33;6.27;;;8.90;1.00;;;;;;4839309;28;20198;-85
2021/03/11 10:09:55;;;;;;;6.80;6.10;;;8.70;1.00;;;;;;4839385;28;20605;-84
2021/03/11 10:12:35;;;;;;;4.27;3.87;;;8.40;1.00;;;;;;4855502;28;20304;-84
2021/03/11 10:15:06;;;;;;;5.13;3.67;;;8.10;1.00;;;;;;4847809;28;20182;-84
2021/03/11 10:17:29;;;;;;;4.20;3.67;;;7.80;1.00;;;;;;4849205;28;20182;-87
2021/03/11 10:19:51;;;;;;;4.53;3.67;;;7.50;1.00;;;;;;4848847;28;20282;-84
2021/03/11 10:22:17;;;;;;;5.50;3.87;;;7.20;1.00;;;;;;4848224;28;20202;-81
2021/03/11 10:24:42;;;;;;;4.63;3.77;;;7.20;1.00;;;;;;4858687;28;21041;-84
2021/03/11 10:27:06;;;;;;;4.87;3.80;;;6.70;1.00;;;;;;4852594;28;20191;-85
2021/03/11 10:29:30;;;;;;;4.10;3.70;;;6.60;1.00;;;;;;4847420;28;20194;-87
2021/03/11 10:31:56;;;;;;;4.20;3.80;;;6.70;1.00;;;;;;4838978;28;20187;-74
2021/03/11 10:34:19;;;;;;;5.03;3.23;;;6.70;1.00;;;;;;4839548;28;20218;-84
2021/03/11 10:36:55;;;;;;;5.60;4.20;;;6.60;1.00;;;;;;4855471;28;20619;-86
2021/03/11 10:39:18;;;;;;;11.10;7.20;;;6.80;1.00;;;;;;4840107;28;20217;-78
2021/03/11 10:41:57;;;;;;;5.67;5.07;;;6.70;1.00;;;;;;4840634;28;20245;-85
2021/03/11 10:44:19;;;;;;;4.50;4.10;;;6.70;1.00;;;;;;4841255;28;20240;-83
2021/03/11 10:46:42;;;;;;;4.33;3.93;;;6.60;1.00;;;;;;4833670;28;20798;-85
2021/03/11 10:49:05;;;;;;;5.93;5.33;;;6.60;1.00;;;;;;4839028;28;20190;-86
2021/03/11 10:51:30;;;;;;;5.63;4.90;;;6.60;1.00;;;;;;4846514;28;20208;-87
2021/03/11 10:53:52;;;;;;;5.37;4.23;;;6.60;1.00;;;;;;4840083;28;20238;-83
2021/03/11 10:56:15;;;;;;;4.60;4.20;;;6.80;1.00;;;;;;4850781;28;20193;-90
2021/03/11 10:58:37;;;;;;;8.77;6.23;;;6.80;1.00;;;;;;4845625;28;20228;-89
2021/03/11 11:01:06;;;;;;;5.40;4.50;;;6.80;1.00;;;;;;4856201;28;20182;-87
2021/03/11 11:03:28;;;;;;;4.73;4.23;;;6.70;1.00;;;;;;4859450;28;20701;-86
2021/03/11 11:05:54;;;;;;;4.57;4.10;;;6.90;1.00;;;;;;4844853;28;20222;-86
2021/03/11 11:08:17;;;;;;;8.13;4.50;;;6.60;1.00;;;;;;4847154;28;20248;-88
2021/03/11 11:10:40;;;;;;;6.90;6.20;;;6.50;1.00;;;;;;4848571;28;20190;-85
2021/03/11 11:13:02;;;;;;;4.10;3.70;;;6.50;1.00;;;;;;4839039;28;20210;-80
2021/03/11 11:15:26;;;;;;;5.03;4.03;;;6.40;1.00;;;;;;4841524;28;20710;-88
2021/03/11 11:17:48;;;;;;;7.63;4.63;;;6.30;1.00;;;;;;4842403;28;20190;-79
2021/03/11 11:20:14;;;;;;;4.03;3.63;;;6.20;1.00;;;;;;4839933;28;20225;-83
2021/03/11 11:22:36;;;;;;;6.10;4.60;;;6.00;1.00;;;;;;4849950;28;20191;-79
2021/03/11 11:24:59;;;;;;;4.57;3.67;;;6.00;1.00;;;;;;4854634;28;20252;-87
2021/03/11 11:27:22;;;;;;;4.40;3.27;;;6.00;1.00;;;;;;4848350;28;20220;-87
2021/03/11 11:29:44;;;;;;;8.47;5.17;;;5.80;1.00;;;;;;4851509;28;20242;-84
2021/03/11 11:32:07;;;;;;;7.07;4.27;;;5.70;1.00;;;;;;4857901;28;20190;-84
2021/03/11 11:34:29;;;;;;;4.40;4.00;;;5.70;1.00;;;;;;4858025;28;20217;-84
2021/03/11 11:36:51;;;;;;;4.23;3.63;;;5.70;1.00;;;;;;4857500;28;20186;-81
2021/03/11 11:39:14;;;;;;;5.53;4.50;;;5.60;1.00;;;;;;4857752;28;20224;-79
2021/03/11 11:41:38;;;;;;;6.60;4.77;;;5.70;1.00;;;;;;4865643;28;20261;-89
2021/03/11 11:44:00;;;;;;;5.97;4.30;;;5.70;1.00;;;;;;4838160;28;20626;-73
2021/03/11 11:46:22;;;;;;;6.50;4.60;;;5.50;1.00;;;;;;4838503;28;20202;-80
2021/03/11 11:48:44;;;;;;;5.23;3.80;;;5.50;1.00;;;;;;4840702;28;20189;-90
2021/03/11 11:51:06;;;;;;;6.87;5.33;;;5.50;1.00;;;;;;4856001;28;20817;-87
2021/03/11 11:53:28;;;;;;;6.03;5.07;;;5.40;1.00;;;;;;4857444;28;20213;-81
2021/03/11 11:55:51;;;;;;;4.93;4.37;;;5.40;1.00;;;;;;4854680;28;20233;-88
2021/03/11 11:58:13;;;;;;;6.47;4.80;;;5.40;1.00;;;;;;4837572;28;20194;-82
2021/03/11 12:00:36;;;;;;;5.17;4.67;;;5.40;1.00;;;;;;4836059;28;20599;-88
2021/03/11 12:02:58;;;;;;;5.77;4.27;;;5.50;1.00;;;;;;4839252;28;20294;-89
2021/03/11 12:05:20;;;;;;;7.97;5.23;;;5.50;1.00;;;;;;4849026;28;20211;-77
2021/03/11 12:07:42;;;;;;;7.03;5.40;;;5.50;1.00;;;;;;4842645;28;20239;-82
2021/03/11 12:10:05;;;;;;;6.83;5.43;;;5.50;1.00;;;;;;4844608;28;20198;-86
2021/03/11 12:12:27;;;;;;;6.57;5.03;;;5.50;1.00;;;;;;4852627;28;20245;-73
2021/03/11 12:14:50;;;;;;;6.53;5.43;;;5.50;1.00;;;;;;4839849;28;20253;-78
2021/03/11 12:17:12;;;;;;;6.67;5.17;;;5.50;1.00;;;;;;4848811;28;20225;-85
2021/03/11 12:19:34;;;;;;;5.70;4.90;;;5.50;1.00;;;;;;4843880;28;20186;-76
2021/03/11 12:21:57;;;;;;;6.33;4.73;;;5.50;1.00;;;;;;4850108;28;20645;-81
2021/03/11 12:24:19;;;;;;;7.87;5.40;;;5.50;1.00;;;;;;4845482;28;20186;-77
2021/03/11 12:26:41;;;;;;;6.70;5.20;;;5.50;1.00;;;;;;4851219;28;20213;-85
2021/03/11 12:29:03;;;;;;;11.17;8.50;;;5.50;1.00;;;;;;4853026;28;20604;-84